Time;durP1;ratioP1;P1;durP2;ratioP2;P2;SDS_P1;SDS_P2;PMS_P1;PMS_P2;Temp;Humidity;BMP_temperature;BMP_pressure;BME280_temperature;BME280_humidity;BME280_pressure;Samples;Min_cycle;Max_cycle;Signal;HPM_P1;HPM_P2
2022/08/30 00:02:22;;;;;;;7.82;3.25;;;19.80;99.90;;;;;;5052201;28;20235;-59
2022/08/30 00:04:49;;;;;;;6.05;3.70;;;19.80;99.90;;;;;;5051811;28;20206;-59
2022/08/30 00:07:16;;;;;;;6.78;4.00;;;19.80;99.90;;;;;;5051676;28;20621;-58
2022/08/30 00:09:42;;;;;;;4.55;3.50;;;19.70;99.90;;;;;;5051943;28;20202;-58
2022/08/30 00:12:11;;;;;;;5.65;3.50;;;19.60;99.90;;;;;;5054515;28;20720;-58
2022/08/30 00:14:38;;;;;;;4.38;3.67;;;19.40;99.90;;;;;;5055870;28;20213;-58
2022/08/30 00:17:05;;;;;;;4.32;3.63;;;19.30;99.90;;;;;;5055658;28;20588;-58
2022/08/30 00:19:31;;;;;;;7.60;3.60;;;19.30;99.90;;;;;;5055233;28;20435;-59
2022/08/30 00:21:58;;;;;;;4.65;3.90;;;19.20;99.90;;;;;;5055070;28;20592;-58
2022/08/30 00:24:25;;;;;;;5.70;3.88;;;19.30;99.90;;;;;;5055616;28;20205;-58
2022/08/30 00:26:52;;;;;;;6.45;3.85;;;19.30;99.90;;;;;;5055919;28;20228;-58
2022/08/30 00:29:20;;;;;;;5.57;3.88;;;19.20;99.90;;;;;;5055625;28;20756;-58
2022/08/30 00:31:47;;;;;;;15.82;4.07;;;19.10;99.90;;;;;;5054996;28;20645;-58
2022/08/30 00:34:15;;;;;;;6.75;4.10;;;19.00;99.90;;;;;;5055394;28;20592;-58
2022/08/30 00:36:42;;;;;;;7.93;4.00;;;18.90;99.90;;;;;;5055644;28;20202;-58
2022/08/30 00:39:09;;;;;;;5.53;4.18;;;18.90;99.90;;;;;;5055455;28;20248;-58
2022/08/30 00:41:36;;;;;;;5.68;4.05;;;18.80;99.90;;;;;;5055465;28;20272;-58
2022/08/30 00:44:03;;;;;;;6.30;3.95;;;18.80;99.90;;;;;;5055292;28;20216;-58
2022/08/30 00:46:32;;;;;;;4.22;3.75;;;18.70;99.90;;;;;;5055223;28;20611;-59
2022/08/30 00:49:02;;;;;;;5.32;4.40;;;18.80;99.90;;;;;;5055096;28;20236;-58
2022/08/30 00:51:30;;;;;;;5.15;4.20;;;18.70;99.90;;;;;;5055398;28;20217;-58
2022/08/30 00:53:58;;;;;;;4.82;4.10;;;18.70;99.90;;;;;;5055113;28;20210;-58
2022/08/30 00:56:26;;;;;;;5.22;4.00;;;18.70;99.90;;;;;;5055383;28;20580;-58
2022/08/30 00:58:56;;;;;;;4.88;3.95;;;18.60;99.90;;;;;;5055214;28;20225;-58
2022/08/30 01:01:23;;;;;;;6.95;4.25;;;18.60;99.90;;;;;;5055363;28;20205;-58
2022/08/30 01:03:52;;;;;;;6.95;4.53;;;18.60;99.90;;;;;;5054762;28;20226;-58
2022/08/30 01:06:19;;;;;;;4.20;3.80;;;18.60;99.90;;;;;;5054938;28;20232;-58
2022/08/30 01:08:46;;;;;;;5.80;5.00;;;18.60;99.90;;;;;;5055471;28;20216;-58
2022/08/30 01:11:16;;;;;;;5.95;4.07;;;18.50;99.90;;;;;;5055037;28;20205;-58
2022/08/30 01:13:44;;;;;;;4.15;3.45;;;18.50;99.90;;;;;;5054364;28;20238;-58
2022/08/30 01:16:11;;;;;;;6.75;3.90;;;18.50;99.90;;;;;;5054703;28;20287;-58
2022/08/30 01:18:38;;;;;;;6.00;3.90;;;18.50;99.90;;;;;;5054344;28;20210;-58
2022/08/30 01:21:15;;;;;;;6.85;4.28;;;18.40;99.90;;;;;;5054501;28;20689;-59
2022/08/30 01:23:46;;;;;;;4.72;4.18;;;18.30;99.90;;;;;;5053522;28;20705;-58
2022/08/30 01:26:13;;;;;;;5.50;3.90;;;18.30;99.90;;;;;;5054474;28;20209;-59
2022/08/30 01:28:41;;;;;;;5.03;4.00;;;18.30;99.90;;;;;;5054353;28;20201;-58
2022/08/30 01:31:08;;;;;;;8.77;4.10;;;18.30;99.90;;;;;;5054405;28;20217;-58
2022/08/30 01:33:37;;;;;;;8.02;4.30;;;18.30;99.90;;;;;;5054287;28;20444;-58
2022/08/30 01:36:06;;;;;;;10.90;4.00;;;18.20;99.90;;;;;;5054618;28;20244;-58
2022/08/30 01:38:36;;;;;;;7.15;4.50;;;18.10;99.90;;;;;;5054139;28;20739;-58
2022/08/30 01:41:11;;;;;;;4.95;4.03;;;18.10;99.90;;;;;;5054076;28;20205;-58
2022/08/30 01:43:38;;;;;;;6.32;4.20;;;18.10;99.90;;;;;;5053656;28;20232;-58
2022/08/30 01:46:06;;;;;;;6.90;4.57;;;18.10;99.90;;;;;;5053757;28;20684;-58
2022/08/30 01:48:33;;;;;;;9.25;4.47;;;18.10;99.90;;;;;;5054042;28;20224;-58
2022/08/30 01:51:00;;;;;;;5.30;4.40;;;18.00;99.90;;;;;;5053919;28;20220;-58
2022/08/30 01:53:27;;;;;;;4.75;4.20;;;18.00;99.90;;;;;;5053452;28;20230;-58
2022/08/30 01:55:53;;;;;;;5.75;4.00;;;17.80;99.90;;;;;;5053858;28;20205;-58
2022/08/30 01:58:22;;;;;;;6.65;3.90;;;17.80;99.90;;;;;;5053915;28;20692;-58
2022/08/30 02:00:50;;;;;;;4.95;4.13;;;17.80;99.90;;;;;;5053925;28;20283;-58
2022/08/30 02:03:16;;;;;;;5.25;4.05;;;17.70;99.90;;;;;;5053628;28;20236;-58
2022/08/30 02:05:43;;;;;;;5.47;4.20;;;17.70;99.90;;;;;;5053597;28;20212;-58
2022/08/30 02:08:10;;;;;;;4.70;3.92;;;17.70;99.90;;;;;;5053730;28;20222;-58
2022/08/30 02:10:37;;;;;;;7.78;4.25;;;17.70;99.90;;;;;;5054082;28;20260;-58
2022/08/30 02:13:04;;;;;;;6.35;3.97;;;17.70;99.90;;;;;;5053330;28;20233;-58
2022/08/30 02:15:34;;;;;;;4.85;4.30;;;17.70;99.90;;;;;;5053691;28;20209;-59
2022/08/30 02:18:01;;;;;;;6.38;4.20;;;17.70;99.90;;;;;;5053641;28;20206;-58
2022/08/30 02:20:27;;;;;;;4.28;3.88;;;17.70;99.90;;;;;;5053281;28;20225;-58
2022/08/30 02:22:54;;;;;;;4.88;4.07;;;17.60;99.90;;;;;;5053087;28;20236;-59
2022/08/30 02:25:21;;;;;;;4.60;4.15;;;17.60;99.90;;;;;;5053285;28;20217;-58
2022/08/30 02:27:48;;;;;;;6.10;4.18;;;17.60;99.90;;;;;;5053664;28;20206;-58
2022/08/30 02:30:15;;;;;;;6.68;4.50;;;17.60;99.90;;;;;;5053227;28;20205;-58
2022/08/30 02:32:43;;;;;;;4.88;4.38;;;17.60;99.90;;;;;;5053417;28;20735;-58
2022/08/30 02:35:10;;;;;;;4.68;4.03;;;17.50;99.90;;;;;;5052300;28;20217;-58
2022/08/30 02:37:37;;;;;;;6.13;4.25;;;17.40;99.90;;;;;;5052933;28;20205;-58
2022/08/30 02:40:04;;;;;;;9.05;4.40;;;17.30;99.90;;;;;;5053166;28;20229;-58
2022/08/30 02:42:31;;;;;;;6.30;4.18;;;17.20;99.90;;;;;;5052893;28;20252;-58
2022/08/30 02:44:59;;;;;;;8.02;3.95;;;17.20;99.90;;;;;;5052891;28;20585;-58
2022/08/30 02:47:26;;;;;;;5.82;4.65;;;17.20;99.90;;;;;;5052900;28;20241;-58
2022/08/30 02:49:54;;;;;;;6.32;5.00;;;17.20;99.90;;;;;;5052812;28;20201;-58
2022/08/30 02:52:21;;;;;;;7.93;5.22;;;17.20;99.90;;;;;;5052529;28;20226;-58
2022/08/30 02:54:48;;;;;;;6.25;4.65;;;17.20;99.90;;;;;;5052673;28;20206;-58
2022/08/30 02:57:15;;;;;;;4.90;4.00;;;17.20;99.90;;;;;;5053113;28;20212;-59
2022/08/30 02:59:44;;;;;;;7.30;4.57;;;17.10;99.90;;;;;;5052868;28;20221;-58
2022/08/30 03:02:11;;;;;;;6.03;4.40;;;17.10;99.90;;;;;;5052092;28;20611;-58
2022/08/30 03:04:38;;;;;;;6.32;4.28;;;17.00;99.90;;;;;;5052745;28;20300;-58
2022/08/30 03:07:07;;;;;;;7.57;4.43;;;17.00;99.90;;;;;;5052692;28;20239;-58
2022/08/30 03:09:34;;;;;;;7.18;4.40;;;17.00;99.90;;;;;;5052643;28;20220;-58
2022/08/30 03:12:01;;;;;;;4.90;4.32;;;17.00;99.90;;;;;;5051964;28;20642;-58
2022/08/30 03:14:28;;;;;;;6.97;4.23;;;17.00;99.90;;;;;;5052590;28;20218;-58
2022/08/30 03:16:55;;;;;;;7.32;4.30;;;17.00;99.90;;;;;;5052354;28;20210;-58
2022/08/30 03:19:22;;;;;;;7.73;4.50;;;16.90;99.90;;;;;;5052312;28;20210;-59
2022/08/30 03:21:49;;;;;;;5.87;4.50;;;16.80;99.90;;;;;;5052613;28;20260;-58
2022/08/30 03:24:18;;;;;;;4.93;4.03;;;16.80;99.90;;;;;;5052419;28;20241;-58
2022/08/30 03:26:44;;;;;;;4.65;3.75;;;16.60;99.90;;;;;;5052386;28;20206;-58
2022/08/30 03:29:11;;;;;;;8.05;4.90;;;16.60;99.90;;;;;;5052387;28;20205;-58
2022/08/30 03:31:38;;;;;;;8.05;4.30;;;16.50;99.90;;;;;;5052732;28;20205;-58
2022/08/30 03:34:05;;;;;;;5.30;4.30;;;16.50;99.90;;;;;;5052169;28;20713;-58
2022/08/30 03:36:32;;;;;;;4.93;4.20;;;16.50;99.90;;;;;;5052158;28;20677;-58
2022/08/30 03:38:59;;;;;;;5.50;4.10;;;16.40;99.90;;;;;;5052318;28;20723;-58
2022/08/30 03:41:27;;;;;;;7.80;4.20;;;16.40;99.90;;;;;;5052427;28;20237;-58
2022/08/30 03:43:54;;;;;;;7.70;3.95;;;16.40;99.90;;;;;;5052432;28;20252;-58
2022/08/30 03:46:20;;;;;;;6.70;4.65;;;16.50;99.90;;;;;;5054201;28;20209;-58
2022/08/30 03:48:47;;;;;;;4.80;4.30;;;16.50;99.90;;;;;;5056485;28;20209;-57
2022/08/30 03:51:14;;;;;;;7.13;4.60;;;16.50;99.90;;;;;;5056141;28;20202;-58
2022/08/30 03:53:40;;;;;;;6.68;4.28;;;16.50;99.90;;;;;;5055657;28;20740;-58
2022/08/30 03:56:07;;;;;;;6.82;4.63;;;16.50;99.90;;;;;;5056039;28;20213;-58
2022/08/30 03:58:35;;;;;;;5.88;4.32;;;16.50;99.90;;;;;;5056140;28;20213;-58
2022/08/30 04:01:02;;;;;;;5.07;4.25;;;16.50;99.90;;;;;;5055870;28;20237;-58
2022/08/30 04:03:29;;;;;;;4.78;4.25;;;16.50;99.90;;;;;;5055887;28;20229;-58
2022/08/30 04:05:56;;;;;;;6.13;4.43;;;16.50;99.90;;;;;;5056133;28;20229;-58
2022/08/30 04:08:23;;;;;;;5.72;4.50;;;16.60;99.90;;;;;;5055999;28;20239;-58
2022/08/30 04:10:52;;;;;;;9.43;4.67;;;16.60;99.90;;;;;;5056137;28;20228;-58
2022/08/30 04:13:19;;;;;;;5.57;4.32;;;16.60;99.90;;;;;;5056038;28;20233;-58
2022/08/30 04:15:47;;;;;;;6.03;4.38;;;16.70;99.90;;;;;;5055660;28;20213;-58
2022/08/30 04:18:14;;;;;;;6.10;4.30;;;16.70;99.90;;;;;;5056011;28;20209;-58
2022/08/30 04:20:41;;;;;;;6.93;4.37;;;16.70;99.90;;;;;;5056129;28;20229;-58
2022/08/30 04:23:09;;;;;;;6.63;4.47;;;16.70;99.90;;;;;;5055755;28;20260;-58
2022/08/30 04:25:36;;;;;;;6.80;4.50;;;16.80;99.90;;;;;;5055948;28;20201;-59
2022/08/30 04:28:05;;;;;;;8.10;4.80;;;16.80;99.90;;;;;;5055748;28;20212;-58
2022/08/30 04:30:32;;;;;;;5.20;4.00;;;16.80;99.90;;;;;;5055553;28;20208;-59
2022/08/30 04:33:00;;;;;;;6.25;4.18;;;16.80;99.90;;;;;;5055422;28;20230;-59
2022/08/30 04:35:27;;;;;;;9.13;4.60;;;16.90;99.90;;;;;;5055472;28;20206;-58
2022/08/30 04:37:54;;;;;;;7.67;4.53;;;16.90;99.90;;;;;;5055437;28;20232;-58
2022/08/30 04:40:21;;;;;;;8.83;5.00;;;16.90;99.90;;;;;;5055293;28;20225;-59
2022/08/30 04:42:52;;;;;;;8.75;4.90;;;16.90;99.90;;;;;;5054870;28;20229;-59
2022/08/30 04:45:21;;;;;;;9.80;5.70;;;16.90;99.90;;;;;;5055497;28;20296;-58
2022/08/30 04:47:48;;;;;;;10.65;5.75;;;16.90;99.90;;;;;;5055267;28;20209;-59
2022/08/30 04:50:19;;;;;;;10.73;5.90;;;16.90;99.90;;;;;;5055267;28;20202;-59
2022/08/30 04:52:46;;;;;;;5.85;4.80;;;16.90;99.90;;;;;;5054655;28;20230;-59
2022/08/30 04:55:14;;;;;;;5.78;4.80;;;17.00;99.90;;;;;;5055052;28;20678;-58
2022/08/30 04:57:42;;;;;;;7.38;5.15;;;17.00;99.90;;;;;;5054099;28;20243;-59
2022/08/30 05:00:11;;;;;;;6.82;4.85;;;17.00;99.90;;;;;;5055034;28;20229;-59
2022/08/30 05:02:38;;;;;;;5.25;4.55;;;17.00;99.90;;;;;;5054913;28;20272;-59
2022/08/30 05:07:52;;;;;;;6.68;4.50;;;17.10;99.90;;;;;;5054725;28;20295;-59
2022/08/30 05:10:19;;;;;;;5.40;4.50;;;17.20;99.90;;;;;;5055058;28;20209;-58
2022/08/30 05:12:45;;;;;;;10.25;4.55;;;17.20;99.90;;;;;;5054611;28;20592;-58
2022/08/30 05:15:13;;;;;;;6.75;4.93;;;17.30;99.90;;;;;;5054937;28;20209;-59
2022/08/30 05:17:40;;;;;;;7.60;4.68;;;17.40;99.90;;;;;;5054785;28;20647;-58
2022/08/30 05:20:09;;;;;;;7.10;5.03;;;17.50;99.90;;;;;;5054111;28;20295;-59
2022/08/30 05:22:36;;;;;;;6.35;4.57;;;17.70;99.90;;;;;;5054581;28;20240;-58
2022/08/30 05:25:05;;;;;;;10.77;5.10;;;17.80;99.90;;;;;;5054595;28;20209;-59
2022/08/30 05:27:32;;;;;;;5.55;4.60;;;18.00;99.90;;;;;;5054421;28;20700;-58
2022/08/30 05:29:59;;;;;;;6.15;5.10;;;18.10;99.90;;;;;;5054538;28;20213;-59
2022/08/30 05:32:25;;;;;;;9.35;4.47;;;18.20;99.90;;;;;;5054312;28;20228;-59
2022/08/30 05:34:52;;;;;;;7.38;5.28;;;18.30;99.90;;;;;;5054034;28;20205;-59
2022/08/30 05:37:19;;;;;;;7.95;4.90;;;18.30;99.90;;;;;;5054416;28;20240;-58
2022/08/30 05:39:46;;;;;;;8.65;5.07;;;18.30;99.90;;;;;;5054654;28;20209;-58
2022/08/30 05:42:14;;;;;;;6.93;4.78;;;18.50;99.90;;;;;;5053924;28;20229;-58
2022/08/30 05:44:40;;;;;;;9.15;5.45;;;19.20;99.90;;;;;;5054835;28;20850;-58
2022/08/30 05:47:07;;;;;;;5.35;4.18;;;20.40;99.90;;;;;;5054829;28;20205;-60
2022/08/30 05:49:34;;;;;;;8.43;4.65;;;21.60;99.90;;;;;;5054845;28;20205;-59
2022/08/30 05:52:00;;;;;;;6.40;4.43;;;22.70;99.90;;;;;;5054767;28;20221;-58
2022/08/30 05:54:28;;;;;;;6.28;4.63;;;23.60;99.90;;;;;;5054382;28;20210;-60
2022/08/30 05:56:54;;;;;;;7.47;4.22;;;24.40;99.90;;;;;;5054510;28;20296;-59
2022/08/30 05:59:22;;;;;;;7.25;4.30;;;25.30;99.90;;;;;;5054544;28;20216;-59
2022/08/30 06:01:49;;;;;;;7.80;4.38;;;26.20;99.90;;;;;;5054306;28;20233;-59
2022/08/30 06:04:17;;;;;;;7.95;4.85;;;26.80;99.90;;;;;;5054091;28;20209;-59
2022/08/30 06:06:44;;;;;;;7.82;5.05;;;27.50;99.90;;;;;;5054237;28;20201;-60
2022/08/30 06:09:13;;;;;;;8.45;4.30;;;28.20;99.90;;;;;;5053704;28;20209;-59
2022/08/30 06:11:40;;;;;;;7.30;3.78;;;28.90;98.30;;;;;;5053571;28;20213;-59
2022/08/30 06:14:07;;;;;;;7.47;4.40;;;29.50;95.20;;;;;;5053478;28;20209;-60
2022/08/30 06:16:38;;;;;;;6.78;4.13;;;30.00;93.10;;;;;;5053403;28;20254;-59
2022/08/30 06:19:09;;;;;;;8.98;4.40;;;30.40;92.00;;;;;;5053780;28;20300;-59
2022/08/30 06:21:37;;;;;;;6.10;3.90;;;30.70;90.70;;;;;;5053429;28;20232;-59
2022/08/30 06:24:05;;;;;;;6.15;3.92;;;31.20;89.00;;;;;;5053407;28;20228;-59
2022/08/30 06:26:36;;;;;;;4.72;3.30;;;31.60;86.40;;;;;;5053101;28;20205;-58
2022/08/30 06:29:03;;;;;;;5.28;3.22;;;32.10;83.20;;;;;;5053777;28;20259;-59
2022/08/30 06:31:30;;;;;;;4.80;3.35;;;32.70;80.90;;;;;;5053833;28;20202;-59
2022/08/30 06:33:58;;;;;;;6.82;3.30;;;33.30;76.90;;;;;;5053392;28;20315;-59
2022/08/30 06:36:26;;;;;;;6.25;3.50;;;33.50;73.90;;;;;;5053566;28;20232;-59
2022/08/30 06:38:54;;;;;;;4.75;3.10;;;33.60;71.70;;;;;;5053000;28;20217;-60
2022/08/30 06:41:25;;;;;;;5.63;2.90;;;33.60;71.80;;;;;;5052602;28;20221;-59
2022/08/30 06:43:52;;;;;;;5.88;3.38;;;33.90;70.00;;;;;;5052597;28;20709;-60
2022/08/30 06:46:22;;;;;;;4.18;3.40;;;33.90;68.90;;;;;;5052955;28;20224;-59
2022/08/30 06:48:48;;;;;;;4.70;3.22;;;34.10;67.90;;;;;;5052844;28;20209;-58
2022/08/30 06:51:20;;;;;;;5.45;3.05;;;34.40;66.60;;;;;;5053045;28;20205;-59
2022/08/30 06:53:47;;;;;;;5.20;3.78;;;34.40;66.20;;;;;;5052613;28;20229;-59
2022/08/30 06:56:14;;;;;;;4.30;3.03;;;34.40;66.10;;;;;;5052852;28;20202;-58
2022/08/30 06:58:41;;;;;;;3.78;3.00;;;34.50;65.30;;;;;;5052773;28;20703;-59
2022/08/30 07:01:11;;;;;;;4.22;3.30;;;34.70;64.30;;;;;;5052521;28;20234;-58
2022/08/30 07:03:38;;;;;;;3.95;3.05;;;35.10;62.30;;;;;;5052106;28;20229;-59
2022/08/30 07:06:05;;;;;;;8.05;3.13;;;35.30;61.30;;;;;;5052377;28;20289;-59
2022/08/30 07:08:33;;;;;;;4.97;3.00;;;35.10;60.50;;;;;;5052060;28;20588;-58
2022/08/30 07:11:01;;;;;;;4.47;3.33;;;35.00;60.60;;;;;;5052225;28;20690;-59
2022/08/30 07:13:28;;;;;;;5.18;2.92;;;34.90;60.50;;;;;;5051957;28;20654;-60
2022/08/30 07:15:55;;;;;;;3.35;2.97;;;34.80;60.90;;;;;;5052425;28;20589;-60
2022/08/30 07:21:08;;;;;;;5.28;3.17;;;35.60;59.40;;;;;;5051592;28;20228;-59
2022/08/30 07:23:37;;;;;;;3.30;2.67;;;36.20;58.20;;;;;;5052095;28;20530;-60
2022/08/30 07:26:06;;;;;;;5.38;3.25;;;36.70;57.20;;;;;;5052158;28;20205;-60
2022/08/30 07:28:33;;;;;;;4.97;3.00;;;37.20;56.00;;;;;;5052115;28;20215;-59
2022/08/30 07:31:00;;;;;;;4.88;3.28;;;37.20;55.50;;;;;;5052247;28;20284;-60
2022/08/30 07:33:27;;;;;;;4.20;3.13;;;37.30;55.60;;;;;;5052019;28;20236;-59
2022/08/30 07:35:54;;;;;;;4.75;3.28;;;37.50;54.70;;;;;;5052441;28;20577;-60
2022/08/30 07:38:21;;;;;;;4.40;3.15;;;37.80;54.30;;;;;;5052305;28;20209;-60
2022/08/30 07:40:49;;;;;;;5.30;3.65;;;38.00;53.80;;;;;;5052139;28;20205;-59
2022/08/30 07:43:15;;;;;;;6.10;3.55;;;38.00;53.80;;;;;;5051959;28;20229;-59
2022/08/30 07:45:42;;;;;;;4.38;3.03;;;38.20;53.30;;;;;;5052311;28;20681;-58
2022/08/30 07:48:10;;;;;;;7.18;3.35;;;38.20;53.30;;;;;;5051989;28;20206;-58
2022/08/30 07:50:37;;;;;;;7.78;3.35;;;38.40;53.10;;;;;;5052015;28;20205;-58
2022/08/30 07:53:04;;;;;;;4.43;3.45;;;38.70;52.40;;;;;;5051418;28;20256;-59
2022/08/30 07:55:31;;;;;;;4.95;3.13;;;39.10;51.40;;;;;;5051728;28;20694;-58
2022/08/30 07:57:59;;;;;;;5.60;3.38;;;39.10;51.90;;;;;;5051657;28;20209;-59
2022/08/30 08:00:26;;;;;;;4.47;3.22;;;39.30;51.30;;;;;;5051639;28;20208;-59
2022/08/30 08:02:54;;;;;;;4.65;3.20;;;39.30;50.80;;;;;;5051096;28;20229;-58
2022/08/30 08:05:20;;;;;;;6.82;3.50;;;39.20;50.70;;;;;;5051995;28;20264;-58
2022/08/30 08:07:47;;;;;;;6.35;3.30;;;38.90;51.30;;;;;;5051813;28;20210;-58
2022/08/30 08:10:14;;;;;;;4.32;3.13;;;38.50;51.90;;;;;;5051727;28;20218;-58
2022/08/30 08:12:41;;;;;;;3.83;3.47;;;38.20;52.20;;;;;;5051571;28;20234;-59
2022/08/30 08:15:10;;;;;;;3.50;3.05;;;37.80;52.90;;;;;;5051948;28;20205;-58
2022/08/30 08:17:37;;;;;;;5.88;3.50;;;37.10;54.00;;;;;;5051879;28;20208;-58
2022/08/30 08:20:05;;;;;;;3.88;3.45;;;36.20;55.40;;;;;;5051886;28;20209;-58
2022/08/30 08:22:31;;;;;;;4.72;3.42;;;34.90;57.60;;;;;;5051183;28;20720;-58
2022/08/30 08:24:58;;;;;;;6.03;3.50;;;33.80;59.40;;;;;;5051793;28;20229;-58
2022/08/30 08:27:25;;;;;;;5.38;3.63;;;32.90;61.60;;;;;;5051522;28;20566;-59
2022/08/30 08:29:52;;;;;;;4.28;3.15;;;32.30;63.00;;;;;;5051341;28;20206;-58
2022/08/30 08:32:20;;;;;;;5.43;3.30;;;31.60;65.20;;;;;;5053198;28;20229;-58
2022/08/30 08:34:46;;;;;;;6.10;3.80;;;31.30;66.60;;;;;;5055034;28;20220;-57
2022/08/30 08:37:13;;;;;;;4.03;3.40;;;31.00;67.60;;;;;;5055341;28;20209;-59
2022/08/30 08:39:40;;;;;;;6.03;3.60;;;30.70;69.20;;;;;;5055206;28;20697;-58
2022/08/30 08:42:16;;;;;;;4.85;3.58;;;30.50;70.60;;;;;;5055096;28;20229;-57
2022/08/30 08:44:53;;;;;;;4.88;3.58;;;30.00;72.20;;;;;;5055861;28;20308;-57
2022/08/30 08:47:28;;;;;;;3.47;3.17;;;29.80;73.00;;;;;;5056047;28;20209;-57
2022/08/30 08:49:59;;;;;;;4.50;3.63;;;29.80;74.10;;;;;;5055532;28;20211;-58
2022/08/30 08:55:18;;;;;;;4.38;3.65;;;29.60;75.40;;;;;;5055797;28;20208;-58
2022/08/30 08:57:45;;;;;;;4.80;3.90;;;29.50;76.20;;;;;;5056957;28;20208;-57
2022/08/30 09:00:14;;;;;;;5.32;3.92;;;29.50;76.90;;;;;;5055805;28;20205;-58
2022/08/30 09:02:44;;;;;;;5.60;3.97;;;29.40;76.80;;;;;;5055509;28;20672;-58
2022/08/30 09:05:17;;;;;;;6.00;4.00;;;29.40;76.90;;;;;;5055948;28;20221;-58
2022/08/30 09:07:48;;;;;;;5.50;4.00;;;29.10;78.30;;;;;;5056349;28;20214;-57
2022/08/30 09:10:16;;;;;;;6.03;3.90;;;28.80;79.90;;;;;;5055999;28;20212;-57
2022/08/30 09:12:43;;;;;;;6.13;3.97;;;28.60;80.90;;;;;;5054872;28;20716;-58
2022/08/30 09:15:17;;;;;;;5.85;3.63;;;28.40;81.10;;;;;;5055787;28;20208;-58
2022/08/30 09:17:57;;;;;;;4.80;3.72;;;28.20;81.90;;;;;;5054922;28;20254;-58
2022/08/30 09:20:27;;;;;;;6.53;3.90;;;28.30;81.90;;;;;;5055613;28;20224;-57
2022/08/30 09:22:54;;;;;;;5.93;3.70;;;28.50;81.80;;;;;;5055600;28;20268;-58
2022/08/30 09:25:23;;;;;;;5.43;3.67;;;28.60;81.30;;;;;;5055125;28;20602;-58
2022/08/30 09:27:52;;;;;;;4.07;3.67;;;28.60;81.30;;;;;;5054752;28;20207;-57
2022/08/30 09:30:22;;;;;;;4.18;3.50;;;28.70;80.70;;;;;;5055210;28;20247;-58
2022/08/30 09:32:55;;;;;;;3.95;3.42;;;28.80;79.60;;;;;;5054042;28;20244;-59
2022/08/30 09:35:24;;;;;;;4.45;3.13;;;28.90;77.70;;;;;;5054286;28;20232;-57
2022/08/30 09:37:55;;;;;;;4.13;3.60;;;28.90;76.10;;;;;;5046564;28;20213;-58
2022/08/30 09:40:27;;;;;;;6.80;3.40;;;29.10;76.30;;;;;;5038820;28;20201;-60
2022/08/30 09:43:09;;;;;;;5.63;4.13;;;29.00;76.80;;;;;;5053156;28;20237;-58
2022/08/30 09:45:39;;;;;;;5.45;3.63;;;28.80;78.40;;;;;;5053997;28;20251;-57
2022/08/30 09:48:29;;;;;;;4.97;3.55;;;28.60;79.30;;;;;;5053819;28;20240;-59
2022/08/30 09:51:21;;;;;;;5.07;3.50;;;28.50;79.10;;;;;;5054119;28;20205;-58
2022/08/30 09:53:56;;;;;;;5.57;3.70;;;28.80;79.50;;;;;;5053694;28;20229;-59
2022/08/30 09:56:30;;;;;;;5.63;4.15;;;29.00;78.50;;;;;;5053950;28;20201;-58
2022/08/30 09:59:07;;;;;;;4.72;3.70;;;29.20;76.90;;;;;;5053828;28;20206;-58
2022/08/30 10:01:38;;;;;;;4.75;3.42;;;29.30;77.10;;;;;;5053524;28;20232;-58
2022/08/30 10:04:15;;;;;;;5.32;3.83;;;29.40;75.70;;;;;;5053802;28;20209;-58
2022/08/30 10:06:49;;;;;;;4.40;3.63;;;29.50;75.70;;;;;;5053558;28;20209;-58
2022/08/30 10:09:24;;;;;;;7.30;3.60;;;29.60;74.90;;;;;;5053919;28;20720;-58
2022/08/30 10:11:56;;;;;;;6.40;3.78;;;29.60;75.90;;;;;;5053278;28;20614;-58
2022/08/30 10:14:48;;;;;;;5.32;3.60;;;29.60;75.50;;;;;;5058939;22;20259;-60
2022/08/30 10:17:27;;;;;;;5.45;3.40;;;29.60;75.30;;;;;;5052296;28;20256;-60
2022/08/30 10:20:06;;;;;;;3.65;3.22;;;29.60;74.50;;;;;;5052551;28;20209;-60
2022/08/30 10:22:38;;;;;;;4.22;3.33;;;29.60;73.00;;;;;;5052690;28;20229;-60
2022/08/30 10:25:11;;;;;;;5.72;3.42;;;29.70;74.70;;;;;;5052502;28;20743;-60
2022/08/30 10:27:43;;;;;;;6.05;3.60;;;29.60;74.90;;;;;;5052643;28;20296;-60
2022/08/30 10:30:13;;;;;;;5.32;3.58;;;29.50;75.40;;;;;;5052721;28;20216;-59
2022/08/30 10:32:47;;;;;;;5.65;3.58;;;29.50;75.90;;;;;;5052087;28;20308;-59
2022/08/30 10:35:17;;;;;;;5.65;3.50;;;29.80;75.70;;;;;;5052602;28;20205;-59
2022/08/30 10:37:48;;;;;;;3.72;3.42;;;30.20;74.80;;;;;;5052618;28;20209;-59
2022/08/30 10:43:10;;;;;;;4.70;3.17;;;30.70;71.80;;;;;;5051790;28;20256;-60
2022/08/30 10:45:44;;;;;;;7.60;3.45;;;31.00;71.30;;;;;;5052225;28;20213;-59
2022/08/30 10:48:17;;;;;;;6.65;3.50;;;31.30;69.60;;;;;;5052184;28;20209;-59
2022/08/30 10:50:49;;;;;;;4.28;3.20;;;31.30;69.50;;;;;;5052131;28;20297;-59
2022/08/30 10:53:20;;;;;;;3.95;3.42;;;31.30;68.40;;;;;;5052177;28;20229;-59
2022/08/30 10:55:52;;;;;;;5.97;3.33;;;31.50;68.60;;;;;;5051326;28;20618;-60
2022/08/30 10:58:19;;;;;;;3.50;3.20;;;31.70;67.80;;;;;;5052186;28;20284;-60
2022/08/30 11:01:04;;;;;;;3.95;3.30;;;32.00;66.70;;;;;;5051819;28;20260;-59
2022/08/30 11:04:03;;;;;;;4.05;3.40;;;32.30;65.40;;;;;;5051678;28;20760;-60
2022/08/30 11:06:39;;;;;;;5.90;3.47;;;32.10;66.60;;;;;;5052071;28;20206;-60
2022/08/30 11:09:24;;;;;;;4.85;3.47;;;31.60;67.70;;;;;;5052046;28;20646;-60
2022/08/30 11:12:12;;;;;;;5.97;3.55;;;31.60;67.40;;;;;;5051737;28;20272;-59
2022/08/30 11:14:41;;;;;;;4.65;3.35;;;31.50;66.70;;;;;;5051170;28;20738;-58
2022/08/30 11:17:24;;;;;;;4.05;3.35;;;31.50;66.60;;;;;;5051720;28;20206;-58
2022/08/30 11:19:52;;;;;;;5.85;3.38;;;31.50;66.50;;;;;;5051776;28;20209;-58
2022/08/30 11:22:26;;;;;;;4.97;3.60;;;31.70;67.00;;;;;;5051339;28;20256;-58
2022/08/30 11:25:02;;;;;;;3.53;3.22;;;31.60;67.10;;;;;;5051168;28;20279;-59
2022/08/30 11:27:46;;;;;;;4.63;3.45;;;31.70;67.00;;;;;;5051791;28;20205;-58
2022/08/30 11:30:49;;;;;;;4.88;3.65;;;31.70;66.30;;;;;;5050312;28;20220;-58
2022/08/30 11:33:30;;;;;;;3.72;2.95;;;31.70;66.30;;;;;;5051179;28;20721;-59
2022/08/30 11:35:57;;;;;;;4.70;3.20;;;31.90;64.80;;;;;;5051794;28;20211;-58
2022/08/30 11:39:00;;;;;;;7.65;3.10;;;32.00;64.10;;;;;;5051833;28;20205;-59
2022/08/30 11:41:34;;;;;;;3.28;2.97;;;32.10;64.50;;;;;;5051604;28;20399;-58
2022/08/30 11:44:26;;;;;;;4.57;3.60;;;32.50;64.00;;;;;;5051389;28;20240;-59
2022/08/30 11:46:54;;;;;;;3.95;3.50;;;33.00;63.20;;;;;;5051559;28;20225;-58
2022/08/30 11:49:46;;;;;;;5.95;4.25;;;33.30;62.40;;;;;;5051354;28;20321;-58
2022/08/30 11:52:34;;;;;;;3.47;3.17;;;33.40;61.30;;;;;;5051324;28;20657;-59
2022/08/30 11:55:39;;;;;;;3.90;3.13;;;33.30;60.70;;;;;;5050992;28;20209;-59
2022/08/30 11:58:18;;;;;;;4.35;3.10;;;33.30;60.60;;;;;;5051242;28;20561;-59
2022/08/30 12:00:47;;;;;;;4.63;3.20;;;33.40;60.50;;;;;;5051250;28;20210;-59
2022/08/30 12:03:30;;;;;;;5.60;3.60;;;33.50;59.70;;;;;;5050794;28;20316;-59
2022/08/30 12:05:59;;;;;;;5.50;3.35;;;33.60;59.70;;;;;;5051390;28;20270;-59
2022/08/30 12:08:51;;;;;;;7.53;3.40;;;33.70;59.70;;;;;;5055002;28;20205;-59
2022/08/30 12:15:48;;;;;;;3.80;3.38;;;33.90;60.30;;;;;;5183005;27;20486;-59
2022/08/30 12:18:29;;;;;;;3.72;3.40;;;33.60;60.90;;;;;;5171580;27;20201;-59
2022/08/30 12:21:08;;;;;;;4.00;3.47;;;33.40;61.30;;;;;;5171506;27;20572;-59
2022/08/30 12:23:40;;;;;;;3.85;3.03;;;33.40;61.00;;;;;;5171475;27;20228;-58
2022/08/30 12:26:28;;;;;;;8.25;3.50;;;33.20;62.10;;;;;;5171775;27;20202;-59
2022/08/30 12:29:08;;;;;;;3.95;3.30;;;33.10;61.70;;;;;;5171495;27;20198;-59
2022/08/30 12:31:40;;;;;;;4.72;3.42;;;32.90;61.80;;;;;;5171439;27;20208;-59
2022/08/30 12:34:16;;;;;;;5.82;3.50;;;32.70;62.50;;;;;;5170918;27;20714;-59
2022/08/30 12:36:51;;;;;;;4.82;3.28;;;32.70;62.50;;;;;;5171216;27;20205;-59
2022/08/30 12:39:20;;;;;;;4.25;3.88;;;32.70;62.50;;;;;;5171369;27;20566;-59
2022/08/30 12:41:47;;;;;;;5.25;2.95;;;32.70;62.50;;;;;;5171123;27;20201;-58
2022/08/30 12:44:16;;;;;;;3.85;3.13;;;32.80;62.50;;;;;;5170879;27;20214;-59
2022/08/30 12:46:47;;;;;;;4.25;3.85;;;32.80;62.30;;;;;;5171309;27;20406;-59
2022/08/30 12:49:17;;;;;;;4.75;3.63;;;32.90;62.50;;;;;;5171478;27;20197;-60
2022/08/30 12:51:45;;;;;;;4.55;3.42;;;32.90;62.30;;;;;;5171018;27;20277;-59
2022/08/30 12:54:18;;;;;;;6.28;3.60;;;32.80;62.50;;;;;;5170717;27;20229;-60
2022/08/30 12:56:54;;;;;;;5.35;3.60;;;32.70;61.90;;;;;;5171258;27;20202;-59
2022/08/30 12:59:41;;;;;;;4.47;3.20;;;32.50;62.30;;;;;;5171347;27;20732;-59
2022/08/30 13:02:12;;;;;;;3.70;3.40;;;32.60;62.70;;;;;;5170861;27;20205;-60
2022/08/30 13:04:40;;;;;;;5.07;3.33;;;32.80;61.10;;;;;;5171051;27;20615;-59
2022/08/30 13:07:07;;;;;;;4.45;3.30;;;32.90;60.80;;;;;;5171147;27;20269;-58
2022/08/30 13:09:36;;;;;;;5.75;3.60;;;33.20;60.70;;;;;;5171598;27;20568;-60
2022/08/30 13:12:06;;;;;;;3.75;3.10;;;33.30;61.00;;;;;;5171135;27;20225;-59
2022/08/30 13:14:36;;;;;;;4.38;3.40;;;33.50;59.80;;;;;;5170729;27;20317;-59
2022/08/30 13:17:20;;;;;;;5.38;3.22;;;33.70;59.00;;;;;;5170898;27;20633;-59